KMTP/MTP METAR and TAF weather

Enter ICAO airport designator
Station Type Date Time Source
KMTP METAR 2022/08/16 19:54 UTC NOAA

KMTP 161954Z AUTO VRB06KT 24/18 A3000 RMK AO1 SLP159 T02390178


Station Type Date Time Source
KMTP Decoded METAR 2022/08/16 19:54 UTC NOAA

MONTAUK AIRPORT, NY, United States (KMTP) 41-04N 071-55W 2M
Aug 16, 2022 - 03:54 PM EDT / 2022.08.16 1954 UTC
Wind: Variable at 7 MPH (6 KT):0
Temperature: 75.0 F (23.9 C)
Dew Point: 64.0 F (17.8 C)
Relative Humidity: 68%
Pressure (altimeter): 30 in. Hg (1015 hPa)
ob: KMTP 161954Z AUTO VRB06KT 24/18 A3000 RMK AO1 SLP159 T02390178
cycle: 20

Station Type Date Time Source
KMTP TAF UTC NOAA

Error!

Example: see airport list